Time;durP1;ratioP1;P1;durP2;ratioP2;P2;SDS_P1;SDS_P2;PMS_P1;PMS_P2;Temp;Humidity;BMP_temperature;BMP_pressure;BME280_temperature;BME280_humidity;BME280_pressure;Samples;Min_cycle;Max_cycle;Signal;HPM_P1;HPM_P2
2023/06/02 00:02:37;;;;;;;;;;;;;;;;;;4956727;28;19925;-74
2023/06/02 00:05:24;;;;;;;;;;;;;;;;;;4959963;28;19918;-75
2023/06/02 00:08:11;;;;;;;;;;;;;;;;;;4961093;28;19949;-74
2023/06/02 00:10:57;;;;;;;;;;;;;;;;;;4960187;28;19918;-74
2023/06/02 00:13:44;;;;;;;;;;;;;;;;;;4955891;28;20385;-74
2023/06/02 00:16:30;;;;;;;;;;;;;;;;;;4967688;28;19925;-74
2023/06/02 00:19:18;;;;;;;;;;;;;;;;;;4969540;28;19922;-74
2023/06/02 00:22:05;;;;;;;;;;;;;;;;;;4964511;28;19953;-74
2023/06/02 00:24:52;;;;;;;;;;;;;;;;;;4963604;28;19994;-74
2023/06/02 00:27:39;;;;;;;;;;;;;;;;;;4941098;28;19930;-74
2023/06/02 00:30:26;;;;;;;;;;;;;;;;;;4938755;28;19930;-74
2023/06/02 00:33:13;;;;;;;;;;;;;;;;;;4949670;28;19966;-74
2023/06/02 00:35:59;;;;;;;;;;;;;;;;;;4943528;28;20450;-73
2023/06/02 00:38:46;;;;;;;;;;;;;;;;;;4939833;28;19922;-74
2023/06/02 00:41:32;;;;;;;;;;;;;;;;;;4952633;28;19918;-74
2023/06/02 00:44:19;;;;;;;;;;;;;;;;;;4946616;28;20572;-73
2023/06/02 00:47:05;;;;;;;;;;;;;;;;;;4947046;28;19937;-74
2023/06/02 00:49:52;;;;;;;;;;;;;;;;;;4941012;28;19922;-74
2023/06/02 00:52:38;;;;;;;;;;;;;;;;;;4952999;28;20367;-74
2023/06/02 00:55:25;;;;;;;;;;;;;;;;;;4946652;28;19922;-74
2023/06/02 00:58:13;;;;;;;;;;;;;;;;;;4950421;28;19922;-74
2023/06/02 01:01:00;;;;;;;;;;;;;;;;;;4940997;28;19929;-75
2023/06/02 01:03:47;;;;;;;;;;;;;;;;;;4945742;28;20532;-74
2023/06/02 01:06:34;;;;;;;;;;;;;;;;;;4933373;28;19933;-74
2023/06/02 01:09:21;;;;;;;;;;;;;;;;;;4944801;28;19926;-74
2023/06/02 01:12:07;;;;;;;;;;;;;;;;;;4946639;28;19933;-74
2023/06/02 01:14:54;;;;;;;;;;;;;;;;;;4948076;28;19919;-74
2023/06/02 01:17:45;;;;;;;;;;;;;;;;;;4944133;28;19922;-74
2023/06/02 01:20:31;;;;;;;;;;;;;;;;;;4942667;28;19929;-74
2023/06/02 01:23:18;;;;;;;;;;;;;;;;;;4946990;28;19928;-74
2023/06/02 01:26:08;;;;;;;;;;;;;;;;;;4944019;28;20828;-74
2023/06/02 01:28:55;;;;;;;;;;;;;;;;;;4965015;28;19922;-73
2023/06/02 01:31:43;;;;;;;;;;;;;;;;;;4959035;28;19918;-74
2023/06/02 01:34:29;;;;;;;;;;;;;;;;;;4950607;28;20382;-74
2023/06/02 01:37:16;;;;;;;;;;;;;;;;;;4960285;28;20392;-74
2023/06/02 01:40:05;;;;;;;;;;;;;;;;;;4953477;28;19925;-74
2023/06/02 01:42:51;;;;;;;;;;;;;;;;;;4953748;28;19925;-74
2023/06/02 01:45:38;;;;;;;;;;;;;;;;;;4959916;28;20298;-74
2023/06/02 01:48:24;;;;;;;;;;;;;;;;;;4958087;28;19922;-74
2023/06/02 01:51:11;;;;;;;;;;;;;;;;;;4956179;28;20291;-74
2023/06/02 01:53:57;;;;;;;;;;;;;;;;;;4959165;28;19979;-74
2023/06/02 01:56:44;;;;;;;;;;;;;;;;;;4951574;28;19922;-74
2023/06/02 01:59:30;;;;;;;;;;;;;;;;;;4955097;28;19925;-74
2023/06/02 02:02:17;;;;;;;;;;;;;;;;;;4957955;28;19922;-74
2023/06/02 02:05:03;;;;;;;;;;;;;;;;;;4962289;28;19922;-74
2023/06/02 02:07:50;;;;;;;;;;;;;;;;;;4968652;28;19930;-74
2023/06/02 02:10:37;;;;;;;;;;;;;;;;;;4953662;28;19926;-74
2023/06/02 02:13:24;;;;;;;;;;;;;;;;;;4963576;28;19928;-74
2023/06/02 02:16:10;;;;;;;;;;;;;;;;;;4955632;28;19922;-74
2023/06/02 02:18:58;;;;;;;;;;;;;;;;;;4962375;28;19922;-75
2023/06/02 02:21:44;;;;;;;;;;;;;;;;;;4961898;28;20629;-74
2023/06/02 02:24:31;;;;;;;;;;;;;;;;;;4964269;28;19921;-75
2023/06/02 02:27:17;;;;;;;;;;;;;;;;;;4960586;28;19930;-75
2023/06/02 02:30:05;;;;;;;;;;;;;;;;;;4953764;28;19919;-74
2023/06/02 02:32:52;;;;;;;;;;;;;;;;;;4961290;28;19945;-75
2023/06/02 02:35:38;;;;;;;;;;;;;;;;;;4964154;28;20606;-74
2023/06/02 02:38:25;;;;;;;;;;;;;;;;;;4963717;28;19926;-74
2023/06/02 02:41:11;;;;;;;;;;;;;;;;;;4958639;28;19926;-75
2023/06/02 02:43:58;;;;;;;;;;;;;;;;;;4962102;28;19922;-74
2023/06/02 02:46:44;;;;;;;;;;;;;;;;;;4948218;28;21646;-75
2023/06/02 02:49:31;;;;;;;;;;;;;;;;;;4952485;28;19920;-76
2023/06/02 02:52:17;;;;;;;;;;;;;;;;;;4963082;28;19922;-74
2023/06/02 02:55:04;;;;;;;;;;;;;;;;;;4952365;28;19922;-75
2023/06/02 02:57:50;;;;;;;;;;;;;;;;;;4955094;28;19918;-74
2023/06/02 03:00:37;;;;;;;;;;;;;;;;;;4971859;28;20361;-74
2023/06/02 03:03:23;;;;;;;;;;;;;;;;;;4956689;28;19922;-73
2023/06/02 03:06:18;;;;;;;;;;;;;;;;;;4958242;28;20335;-74
2023/06/02 03:09:04;;;;;;;;;;;;;;;;;;4958103;28;19922;-74
2023/06/02 03:11:51;;;;;;;;;;;;;;;;;;4957084;28;21103;-74
2023/06/02 03:14:37;;;;;;;;;;;;;;;;;;4963854;28;19922;-73
2023/06/02 03:17:24;;;;;;;;;;;;;;;;;;4962648;28;20420;-73
2023/06/02 03:20:10;;;;;;;;;;;;;;;;;;4960797;28;19930;-73
2023/06/02 03:22:57;;;;;;;;;;;;;;;;;;4965440;28;19926;-73
2023/06/02 03:25:44;;;;;;;;;;;;;;;;;;4959378;28;19936;-74
2023/06/02 03:28:30;;;;;;;;;;;;;;;;;;4958609;28;19922;-74
2023/06/02 03:31:17;;;;;;;;;;;;;;;;;;4952642;28;20537;-74
2023/06/02 03:34:03;;;;;;;;;;;;;;;;;;4958237;28;19922;-73
2023/06/02 03:36:50;;;;;;;;;;;;;;;;;;4953541;28;19929;-73
2023/06/02 03:39:36;;;;;;;;;;;;;;;;;;4957885;28;20294;-73
2023/06/02 03:42:23;;;;;;;;;;;;;;;;;;4960059;28;19919;-73
2023/06/02 03:45:09;;;;;;;;;;;;;;;;;;4956716;28;19919;-73
2023/06/02 03:47:56;;;;;;;;;;;;;;;;;;4954287;28;20301;-73
2023/06/02 03:50:42;;;;;;;;;;;;;;;;;;4963195;28;19928;-73
2023/06/02 03:53:29;;;;;;;;;;;;;;;;;;4955711;28;19918;-73
2023/06/02 03:56:15;;;;;;;;;;;;;;;;;;4956703;28;19922;-73
2023/06/02 03:59:02;;;;;;;;;;;;;;;;;;4951523;28;19934;-74
2023/06/02 04:01:48;;;;;;;;;;;;;;;;;;4956343;28;20330;-74
2023/06/02 04:04:36;;;;;;;;;;;;;;;;;;4949053;28;19925;-74
2023/06/02 04:07:23;;;;;;;;;;;;;;;;;;4955238;28;19938;-74
2023/06/02 04:10:09;;;;;;;;;;;;;;;;;;4954698;28;19933;-73
2023/06/02 04:12:56;;;;;;;;;;;;;;;;;;4963834;28;19926;-74
2023/06/02 04:15:42;;;;;;;;;;;;;;;;;;4957315;28;19918;-73
2023/06/02 04:18:30;;;;;;;;;;;;;;;;;;4952423;28;19933;-73
2023/06/02 04:21:16;;;;;;;;;;;;;;;;;;4965273;28;19937;-73
2023/06/02 04:24:03;;;;;;;;;;;;;;;;;;4958650;28;19964;-73
2023/06/02 04:26:49;;;;;;;;;;;;;;;;;;4956904;28;20004;-74
2023/06/02 04:29:37;;;;;;;;;;;;;;;;;;4955686;28;19922;-74
2023/06/02 04:32:23;;;;;;;;;;;;;;;;;;4949872;28;19923;-74
2023/06/02 04:35:10;;;;;;;;;;;;;;;;;;4957905;28;20282;-74
2023/06/02 04:37:57;;;;;;;;;;;;;;;;;;4959852;28;19929;-73
2023/06/02 04:40:43;;;;;;;;;;;;;;;;;;4956784;28;19915;-74
2023/06/02 04:43:31;;;;;;;;;;;;;;;;;;4956605;28;19944;-73
2023/06/02 04:46:19;;;;;;;;;;;;;;;;;;4959506;28;19926;-74
2023/06/02 04:49:08;;;;;;;;;;;;;;;;;;4956727;28;19931;-73
2023/06/02 04:51:55;;;;;;;;;;;;;;;;;;4953932;28;20251;-78
2023/06/02 04:54:42;;;;;;;;;;;;;;;;;;4961389;28;19922;-74
2023/06/02 04:57:28;;;;;;;;;;;;;;;;;;4963430;28;19914;-73
2023/06/02 05:00:15;;;;;;;;;;;;;;;;;;4970806;28;19928;-74
2023/06/02 05:03:01;;;;;;;;;;;;;;;;;;4955952;28;19922;-73
2023/06/02 05:05:48;;;;;;;;;;;;;;;;;;4960297;28;19914;-73
2023/06/02 05:08:34;;;;;;;;;;;;;;;;;;4954980;28;19923;-74
2023/06/02 05:11:21;;;;;;;;;;;;;;;;;;4967422;28;19914;-74
2023/06/02 05:14:07;;;;;;;;;;;;;;;;;;4959556;28;19952;-73
2023/06/02 05:16:54;;;;;;;;;;;;;;;;;;4954243;28;20421;-73
2023/06/02 05:19:42;;;;;;;;;;;;;;;;;;4958797;28;19921;-74
2023/06/02 05:22:29;;;;;;;;;;;;;;;;;;4960645;28;20291;-73
2023/06/02 05:25:16;;;;;;;;;;;;;;;;;;4961194;28;19922;-73
2023/06/02 05:28:02;;;;;;;;;;;;;;;;;;4953268;28;20320;-73
2023/06/02 05:30:49;;;;;;;;;;;;;;;;;;4947317;28;20388;-73
2023/06/02 05:33:35;;;;;;;;;;;;;;;;;;4953241;28;19922;-74
2023/06/02 05:36:22;;;;;;;;;;;;;;;;;;4961954;28;20028;-74
2023/06/02 05:39:10;;;;;;;;;;;;;;;;;;4959083;28;20445;-74
2023/06/02 05:41:56;;;;;;;;;;;;;;;;;;4947407;28;19932;-74
2023/06/02 05:44:43;;;;;;;;;;;;;;;;;;4951697;28;19929;-74
2023/06/02 05:47:30;;;;;;;;;;;;;;;;;;4953855;28;19953;-74
2023/06/02 05:50:17;;;;;;;;;;;;;;;;;;4957856;28;19922;-74
2023/06/02 05:53:03;;;;;;;;;;;;;;;;;;4963838;28;19929;-73
2023/06/02 05:55:49;;;;;;;;;;;;;;;;;;4959764;28;19925;-73
2023/06/02 05:58:36;;;;;;;;;;;;;;;;;;4958203;28;20033;-73
2023/06/02 06:01:23;;;;;;;;;;;;;;;;;;4947547;28;19922;-74
2023/06/02 06:04:09;;;;;;;;;;;;;;;;;;4959257;28;20656;-73
2023/06/02 06:06:56;;;;;;;;;;;;;;;;;;4963782;28;19926;-73
2023/06/02 06:09:42;;;;;;;;;;;;;;;;;;4955927;28;19919;-73
2023/06/02 06:12:29;;;;;;;;;;;;;;;;;;4954538;28;19929;-73
2023/06/02 06:15:16;;;;;;;;;;;;;;;;;;4963376;28;19922;-73
2023/06/02 06:18:02;;;;;;;;;;;;;;;;;;4965307;28;19929;-72
2023/06/02 06:20:49;;;;;;;;;;;;;;;;;;4963578;28;19936;-73
2023/06/02 06:23:35;;;;;;;;;;;;;;;;;;4963190;28;20453;-73
2023/06/02 06:26:22;;;;;;;;;;;;;;;;;;4966838;28;19936;-73
2023/06/02 06:29:08;;;;;;;;;;;;;;;;;;4948889;28;19921;-72
2023/06/02 06:31:55;;;;;;;;;;;;;;;;;;4960308;28;19929;-72
2023/06/02 06:34:41;;;;;;;;;;;;;;;;;;4961134;28;19929;-73
2023/06/02 06:37:28;;;;;;;;;;;;;;;;;;4954163;28;20509;-73
2023/06/02 06:40:14;;;;;;;;;;;;;;;;;;4952585;28;20449;-73
2023/06/02 06:43:01;;;;;;;;;;;;;;;;;;4961383;28;19926;-72
2023/06/02 06:45:47;;;;;;;;;;;;;;;;;;4952212;28;19926;-73
2023/06/02 06:48:33;;;;;;;;;;;;;;;;;;4962349;28;20693;-73
2023/06/02 06:51:20;;;;;;;;;;;;;;;;;;4960196;28;19998;-74
2023/06/02 06:54:07;;;;;;;;;;;;;;;;;;4956627;28;19933;-73
2023/06/02 06:56:53;;;;;;;;;;;;;;;;;;4952827;28;20406;-73
2023/06/02 06:59:40;;;;;;;;;;;;;;;;;;4971569;28;19922;-73
2023/06/02 07:02:26;;;;;;;;;;;;;;;;;;4962585;28;20305;-73
2023/06/02 07:05:13;;;;;;;;;;;;;;;;;;4957154;28;19929;-75
2023/06/02 07:07:59;;;;;;;;;;;;;;;;;;4959668;28;19930;-74
2023/06/02 07:10:46;;;;;;;;;;;;;;;;;;4961521;28;19923;-74
2023/06/02 07:13:32;;;;;;;;;;;;;;;;;;4962701;28;19922;-74
2023/06/02 07:16:21;;;;;;;;;;;;;;;;;;4962833;28;19922;-74
2023/06/02 07:19:07;;;;;;;;;;;;;;;;;;4962187;28;20019;-74
2023/06/02 07:21:54;;;;;;;;;;;;;;;;;;4958378;28;19921;-74
2023/06/02 07:24:40;;;;;;;;;;;;;;;;;;4956799;28;19928;-74
2023/06/02 07:27:27;;;;;;;;;;;;;;;;;;4956055;28;19934;-74
2023/06/02 07:30:13;;;;;;;;;;;;;;;;;;4961339;28;20370;-75
2023/06/02 07:32:59;;;;;;;;;;;;;;;;;;4958964;28;20626;-74
2023/06/02 07:35:46;;;;;;;;;;;;;;;;;;4961154;28;20463;-74
2023/06/02 07:38:32;;;;;;;;;;;;;;;;;;4962494;28;19922;-73
2023/06/02 07:41:19;;;;;;;;;;;;;;;;;;4960895;28;19951;-74
2023/06/02 07:44:06;;;;;;;;;;;;;;;;;;4943091;28;19922;-74
2023/06/02 07:46:52;;;;;;;;;;;;;;;;;;4948688;28;19926;-73
2023/06/02 07:49:39;;;;;;;;;;;;;;;;;;4945066;28;19922;-74
2023/06/02 07:52:25;;;;;;;;;;;;;;;;;;4955334;28;19929;-74
2023/06/02 07:55:12;;;;;;;;;;;;;;;;;;4963690;28;19960;-73
2023/06/02 07:57:58;;;;;;;;;;;;;;;;;;4956841;28;20251;-74
2023/06/02 08:00:45;;;;;;;;;;;;;;;;;;4959123;28;19930;-74
2023/06/02 08:03:31;;;;;;;;;;;;;;;;;;4961306;28;19929;-73
2023/06/02 08:06:18;;;;;;;;;;;;;;;;;;4961635;28;20436;-74
2023/06/02 08:09:04;;;;;;;;;;;;;;;;;;4965317;28;19926;-74
2023/06/02 08:11:50;;;;;;;;;;;;;;;;;;4963282;28;19929;-73
2023/06/02 08:14:37;;;;;;;;;;;;;;;;;;4955093;28;19929;-73
2023/06/02 08:17:29;;;;;;;;;;;;;;;;;;4956025;28;19929;-73
2023/06/02 08:20:18;;;;;;;;;;;;;;;;;;4959880;28;19928;-75
2023/06/02 08:23:04;;;;;;;;;;;;;;;;;;4966796;28;20574;-73
2023/06/02 08:25:53;;;;;;;;;;;;;;;;;;4954300;28;19923;-74
2023/06/02 08:28:41;;;;;;;;;;;;;;;;;;4962973;28;19937;-73
2023/06/02 08:31:28;;;;;;;;;;;;;;;;;;4954383;28;20393;-74
2023/06/02 08:34:20;;;;;;;;;;;;;;;;;;4953406;28;19918;-74
2023/06/02 08:37:15;;;;;;;;;;;;;;;;;;4953669;28;20246;-73
2023/06/02 08:40:03;;;;;;;;;;;;;;;;;;4961301;28;19925;-74
2023/06/02 08:42:49;;;;;;;;;;;;;;;;;;4967063;28;20315;-74
2023/06/02 08:45:36;;;;;;;;;;;;;;;;;;4957439;28;19919;-73
2023/06/02 08:48:22;;;;;;;;;;;;;;;;;;4960634;28;19952;-74
2023/06/02 08:51:09;;;;;;;;;;;;;;;;;;4963163;28;19926;-73
2023/06/02 08:53:55;;;;;;;;;;;;;;;;;;4959400;28;19918;-74
2023/06/02 08:56:43;;;;;;;;;;;;;;;;;;4954884;28;19919;-74
2023/06/02 08:59:30;;;;;;;;;;;;;;;;;;4968791;28;20373;-74
2023/06/02 09:02:17;;;;;;;;;;;;;;;;;;4962547;28;19921;-74
2023/06/02 09:05:03;;;;;;;;;;;;;;;;;;4963470;28;19922;-73
2023/06/02 09:07:49;;;;;;;;;;;;;;;;;;4961932;28;20418;-73
2023/06/02 09:10:42;;;;;;;;;;;;;;;;;;4958409;28;19922;-73
2023/06/02 09:13:29;;;;;;;;;;;;;;;;;;4948920;28;19934;-74
2023/06/02 09:16:15;;;;;;;;;;;;;;;;;;4958781;28;19944;-74
2023/06/02 09:19:02;;;;;;;;;;;;;;;;;;4961374;28;20306;-73
2023/06/02 09:21:49;;;;;;;;;;;;;;;;;;4965259;28;19918;-73
2023/06/02 09:24:36;;;;;;;;;;;;;;;;;;4965820;28;19918;-73
2023/06/02 09:27:25;;;;;;;;;;;;;;;;;;4956244;28;19938;-73
2023/06/02 09:30:12;;;;;;;;;;;;;;;;;;4957394;28;19925;-77
2023/06/02 09:32:59;;;;;;;;;;;;;;;;;;4957812;28;19922;-78
2023/06/02 09:35:46;;;;;;;;;;;;;;;;;;4964144;28;19914;-77
2023/06/02 09:38:33;;;;;;;;;;;;;;;;;;4958758;28;19933;-77
2023/06/02 09:41:19;;;;;;;;;;;;;;;;;;4960949;28;19926;-76
2023/06/02 09:44:06;;;;;;;;;;;;;;;;;;4955000;28;19930;-76
2023/06/02 09:46:52;;;;;;;;;;;;;;;;;;4952445;28;19927;-77
2023/06/02 09:49:42;;;;;;;;;;;;;;;;;;4951150;28;19918;-76
2023/06/02 09:52:28;;;;;;;;;;;;;;;;;;4958936;28;19928;-77
2023/06/02 09:55:16;;;;;;;;;;;;;;;;;;4956068;28;19919;-75
2023/06/02 09:58:02;;;;;;;;;;;;;;;;;;4956232;28;20303;-76
2023/06/02 10:00:50;;;;;;;;;;;;;;;;;;4958894;28;19919;-76
2023/06/02 10:03:36;;;;;;;;;;;;;;;;;;4960695;28;19914;-76
2023/06/02 10:06:23;;;;;;;;;;;;;;;;;;4955729;28;19938;-76
2023/06/02 10:09:09;;;;;;;;;;;;;;;;;;4953660;28;19918;-76
2023/06/02 10:11:56;;;;;;;;;;;;;;;;;;4959099;28;19923;-77
2023/06/02 10:14:42;;;;;;;;;;;;;;;;;;4960489;28;19922;-76
2023/06/02 10:17:29;;;;;;;;;;;;;;;;;;4962351;28;19922;-76
2023/06/02 10:20:15;;;;;;;;;;;;;;;;;;4962576;28;19919;-75
2023/06/02 10:23:02;;;;;;;;;;;;;;;;;;4961190;28;19942;-76
2023/06/02 10:25:48;;;;;;;;;;;;;;;;;;4959888;28;19930;-76
2023/06/02 10:28:35;;;;;;;;;;;;;;;;;;4949820;28;20868;-76
2023/06/02 10:31:22;;;;;;;;;;;;;;;;;;4955017;28;20321;-76
2023/06/02 10:34:09;;;;;;;;;;;;;;;;;;4959309;28;19922;-76
2023/06/02 10:36:55;;;;;;;;;;;;;;;;;;4958455;28;20378;-76
2023/06/02 10:39:42;;;;;;;;;;;;;;;;;;4950238;28;19925;-77
2023/06/02 10:42:30;;;;;;;;;;;;;;;;;;4952466;28;19922;-76
2023/06/02 10:45:16;;;;;;;;;;;;;;;;;;4951603;28;19941;-76
2023/06/02 10:48:03;;;;;;;;;;;;;;;;;;4960783;28;19937;-77
2023/06/02 10:50:50;;;;;;;;;;;;;;;;;;4956319;28;19930;-77
2023/06/02 10:53:36;;;;;;;;;;;;;;;;;;4958080;28;19934;-77
2023/06/02 10:56:23;;;;;;;;;;;;;;;;;;4947890;28;20397;-77
2023/06/02 10:59:09;;;;;;;;;;;;;;;;;;4959092;28;19914;-76
2023/06/02 11:01:56;;;;;;;;;;;;;;;;;;4959651;28;19928;-77
2023/06/02 11:04:44;;;;;;;;;;;;;;;;;;4962884;28;19929;-77
2023/06/02 11:07:31;;;;;;;;;;;;;;;;;;4955001;28;19926;-77
2023/06/02 11:10:17;;;;;;;;;;;;;;;;;;4958819;28;20380;-77
2023/06/02 11:13:04;;;;;;;;;;;;;;;;;;4965611;28;19926;-74
2023/06/02 11:15:50;;;;;;;;;;;;;;;;;;4953224;28;19925;-75
2023/06/02 11:18:37;;;;;;;;;;;;;;;;;;4955926;28;19926;-77
2023/06/02 11:21:24;;;;;;;;;;;;;;;;;;4948693;28;19918;-75
2023/06/02 11:24:10;;;;;;;;;;;;;;;;;;4960725;28;19982;-76
2023/06/02 11:26:57;;;;;;;;;;;;;;;;;;4958089;28;20897;-77
2023/06/02 11:29:44;;;;;;;;;;;;;;;;;;4970566;28;19924;-77
2023/06/02 11:32:31;;;;;;;;;;;;;;;;;;4950899;28;20238;-78
2023/06/02 11:35:17;;;;;;;;;;;;;;;;;;4961233;28;19918;-76
2023/06/02 11:38:04;;;;;;;;;;;;;;;;;;4957574;28;19929;-77
2023/06/02 11:40:51;;;;;;;;;;;;;;;;;;4967129;28;19922;-76
2023/06/02 11:43:37;;;;;;;;;;;;;;;;;;4962002;28;19929;-77
2023/06/02 11:46:24;;;;;;;;;;;;;;;;;;4950735;28;19925;-77
2023/06/02 11:49:10;;;;;;;;;;;;;;;;;;4968806;28;19977;-77
2023/06/02 11:51:57;;;;;;;;;;;;;;;;;;4965086;28;19927;-76
2023/06/02 11:54:43;;;;;;;;;;;;;;;;;;4967594;28;20298;-75
2023/06/02 11:57:30;;;;;;;;;;;;;;;;;;4962323;28;19926;-76
2023/06/02 12:00:16;;;;;;;;;;;;;;;;;;4964203;28;19918;-76
2023/06/02 12:03:03;;;;;;;;;;;;;;;;;;4951653;28;20458;-77
2023/06/02 12:05:49;;;;;;;;;;;;;;;;;;4963138;28;19918;-76
2023/06/02 12:08:36;;;;;;;;;;;;;;;;;;4965213;28;19926;-76
2023/06/02 12:11:22;;;;;;;;;;;;;;;;;;4969383;28;20360;-76
2023/06/02 12:14:09;;;;;;;;;;;;;;;;;;4953663;28;19919;-76
2023/06/02 12:16:55;;;;;;;;;;;;;;;;;;4967493;28;19938;-77
2023/06/02 12:19:42;;;;;;;;;;;;;;;;;;4951778;28;19918;-76
2023/06/02 12:22:28;;;;;;;;;;;;;;;;;;4969490;28;19929;-76
2023/06/02 12:25:15;;;;;;;;;;;;;;;;;;4971015;28;19924;-76
2023/06/02 12:28:01;;;;;;;;;;;;;;;;;;4958355;28;19933;-76
2023/06/02 12:30:50;;;;;;;;;;;;;;;;;;4962395;28;26282;-76
2023/06/02 12:33:36;;;;;;;;;;;;;;;;;;4971186;28;20401;-76
2023/06/02 12:36:23;;;;;;;;;;;;;;;;;;4968872;28;19919;-76
2023/06/02 12:39:10;;;;;;;;;;;;;;;;;;4974898;28;19915;-77
2023/06/02 12:41:56;;;;;;;;;;;;;;;;;;4981456;28;19920;-76
2023/06/02 12:44:43;;;;;;;;;;;;;;;;;;4973792;28;19919;-76
2023/06/02 12:47:29;;;;;;;;;;;;;;;;;;4976639;28;19927;-75
2023/06/02 12:50:16;;;;;;;;;;;;;;;;;;4971005;28;20393;-76
2023/06/02 12:53:02;;;;;;;;;;;;;;;;;;4967672;28;19961;-77
2023/06/02 12:55:49;;;;;;;;;;;;;;;;;;4964462;28;19915;-76
2023/06/02 12:58:36;;;;;;;;;;;;;;;;;;4970028;28;19922;-75
2023/06/02 13:01:22;;;;;;;;;;;;;;;;;;4964262;28;21142;-75
2023/06/02 13:04:09;;;;;;;;;;;;;;;;;;4967657;28;19922;-76
2023/06/02 13:06:55;;;;;;;;;;;;;;;;;;4963505;28;19925;-78
2023/06/02 13:09:42;;;;;;;;;;;;;;;;;;4961559;28;19933;-76
2023/06/02 13:12:28;;;;;;;;;;;;;;;;;;4964183;28;19922;-77
2023/06/02 13:15:16;;;;;;;;;;;;;;;;;;4962570;28;20049;-75
2023/06/02 13:18:02;;;;;;;;;;;;;;;;;;4965100;28;19918;-76
2023/06/02 13:20:50;;;;;;;;;;;;;;;;;;4966840;28;19925;-76
2023/06/02 13:23:37;;;;;;;;;;;;;;;;;;4959348;28;19920;-77
2023/06/02 13:26:24;;;;;;;;;;;;;;;;;;4960314;28;19926;-76
2023/06/02 13:29:10;;;;;;;;;;;;;;;;;;4959323;28;19926;-77
2023/06/02 13:31:57;;;;;;;;;;;;;;;;;;4951114;28;19927;-77
2023/06/02 13:34:44;;;;;;;;;;;;;;;;;;4968129;28;19922;-77
2023/06/02 13:37:30;;;;;;;;;;;;;;;;;;4965756;28;20012;-77
2023/06/02 13:40:17;;;;;;;;;;;;;;;;;;4956828;28;19922;-77
2023/06/02 13:43:03;;;;;;;;;;;;;;;;;;4960305;28;19925;-78
2023/06/02 13:45:50;;;;;;;;;;;;;;;;;;4955893;28;20544;-77
2023/06/02 13:48:36;;;;;;;;;;;;;;;;;;4956870;28;19937;-77
2023/06/02 13:51:23;;;;;;;;;;;;;;;;;;4953968;28;19918;-76
2023/06/02 13:54:09;;;;;;;;;;;;;;;;;;4965621;28;19914;-77
2023/06/02 13:56:56;;;;;;;;;;;;;;;;;;4965092;28;20405;-77
2023/06/02 13:59:42;;;;;;;;;;;;;;;;;;4953841;28;19914;-77
2023/06/02 14:02:29;;;;;;;;;;;;;;;;;;4958859;28;19922;-77
2023/06/02 14:05:15;;;;;;;;;;;;;;;;;;4955251;28;19918;-77
2023/06/02 14:08:02;;;;;;;;;;;;;;;;;;4969651;28;19933;-77
2023/06/02 14:10:48;;;;;;;;;;;;;;;;;;4953844;28;19918;-77
2023/06/02 14:13:35;;;;;;;;;;;;;;;;;;4949570;28;19926;-77
2023/06/02 14:16:21;;;;;;;;;;;;;;;;;;4949657;28;19919;-77
2023/06/02 14:19:08;;;;;;;;;;;;;;;;;;4954238;28;19937;-77
2023/06/02 14:21:54;;;;;;;;;;;;;;;;;;4950583;28;20398;-77
2023/06/02 14:24:41;;;;;;;;;;;;;;;;;;4956825;28;19925;-77
2023/06/02 14:27:27;;;;;;;;;;;;;;;;;;4950133;28;19937;-78
2023/06/02 14:30:14;;;;;;;;;;;;;;;;;;4956423;28;19929;-75
2023/06/02 14:33:00;;;;;;;;;;;;;;;;;;4959982;28;19922;-77
2023/06/02 14:35:47;;;;;;;;;;;;;;;;;;4958723;28;19922;-77
2023/06/02 14:38:33;;;;;;;;;;;;;;;;;;4960286;28;20082;-77
2023/06/02 14:41:21;;;;;;;;;;;;;;;;;;4960219;28;20353;-77
2023/06/02 14:44:07;;;;;;;;;;;;;;;;;;4956070;28;19918;-77
2023/06/02 14:46:54;;;;;;;;;;;;;;;;;;4959356;28;19925;-77
2023/06/02 14:49:41;;;;;;;;;;;;;;;;;;4957309;28;19918;-77
2023/06/02 14:52:27;;;;;;;;;;;;;;;;;;4949027;28;19922;-78
2023/06/02 14:55:14;;;;;;;;;;;;;;;;;;4963184;28;20011;-76
2023/06/02 14:58:00;;;;;;;;;;;;;;;;;;4955696;28;19926;-77
2023/06/02 15:00:47;;;;;;;;;;;;;;;;;;4956798;28;20556;-77
2023/06/02 15:03:34;;;;;;;;;;;;;;;;;;4954981;28;19929;-76
2023/06/02 15:06:20;;;;;;;;;;;;;;;;;;4953116;28;19949;-76
2023/06/02 15:09:07;;;;;;;;;;;;;;;;;;4949165;28;19923;-76
2023/06/02 15:11:53;;;;;;;;;;;;;;;;;;4957989;28;20294;-76
2023/06/02 15:14:40;;;;;;;;;;;;;;;;;;4943130;28;19942;-76
2023/06/02 15:17:27;;;;;;;;;;;;;;;;;;4944148;28;19945;-76
2023/06/02 15:20:13;;;;;;;;;;;;;;;;;;4948513;28;19918;-75
2023/06/02 15:23:00;;;;;;;;;;;;;;;;;;4950923;28;20534;-77
2023/06/02 15:25:46;;;;;;;;;;;;;;;;;;4962247;28;19926;-77
2023/06/02 15:28:33;;;;;;;;;;;;;;;;;;4946401;28;19937;-77
2023/06/02 15:31:19;;;;;;;;;;;;;;;;;;4957477;28;19926;-76
2023/06/02 15:34:06;;;;;;;;;;;;;;;;;;4954487;28;19923;-77
2023/06/02 15:36:52;;;;;;;;;;;;;;;;;;4952547;28;19914;-75
2023/06/02 15:39:39;;;;;;;;;;;;;;;;;;4958189;28;20401;-76
2023/06/02 15:42:25;;;;;;;;;;;;;;;;;;4952043;28;19925;-74
2023/06/02 15:45:12;;;;;;;;;;;;;;;;;;4960624;28;19922;-76
2023/06/02 15:47:58;;;;;;;;;;;;;;;;;;4958249;28;19923;-76
2023/06/02 15:50:45;;;;;;;;;;;;;;;;;;4954920;28;19922;-76
2023/06/02 15:53:31;;;;;;;;;;;;;;;;;;4947003;28;19922;-76
2023/06/02 15:56:18;;;;;;;;;;;;;;;;;;4952288;28;19922;-78
2023/06/02 15:59:04;;;;;;;;;;;;;;;;;;4956597;28;19921;-74
2023/06/02 16:01:51;;;;;;;;;;;;;;;;;;4954292;28;19929;-75
2023/06/02 16:04:38;;;;;;;;;;;;;;;;;;4955043;28;19931;-75
2023/06/02 16:07:25;;;;;;;;;;;;;;;;;;4957149;28;19926;-75
2023/06/02 16:10:11;;;;;;;;;;;;;;;;;;4957560;28;19925;-75
2023/06/02 16:12:58;;;;;;;;;;;;;;;;;;4956374;28;19918;-76
2023/06/02 16:15:44;;;;;;;;;;;;;;;;;;4959979;28;21545;-77
2023/06/02 16:18:31;;;;;;;;;;;;;;;;;;4948243;28;19918;-75
2023/06/02 16:21:17;;;;;;;;;;;;;;;;;;4949134;28;19930;-75
2023/06/02 16:24:04;;;;;;;;;;;;;;;;;;4956309;28;19915;-77
2023/06/02 16:26:50;;;;;;;;;;;;;;;;;;4964279;28;19936;-75
2023/06/02 16:29:37;;;;;;;;;;;;;;;;;;4956163;28;19919;-76
2023/06/02 16:32:23;;;;;;;;;;;;;;;;;;4955989;28;19922;-79
2023/06/02 16:35:10;;;;;;;;;;;;;;;;;;4963841;28;19922;-79
2023/06/02 16:37:57;;;;;;;;;;;;;;;;;;4968036;28;20458;-79
2023/06/02 16:40:43;;;;;;;;;;;;;;;;;;4956957;28;19933;-79
2023/06/02 16:43:31;;;;;;;;;;;;;;;;;;4949761;28;19957;-79
2023/06/02 16:46:17;;;;;;;;;;;;;;;;;;4961293;28;19977;-79
2023/06/02 16:49:04;;;;;;;;;;;;;;;;;;4970107;28;19933;-75
2023/06/02 16:51:51;;;;;;;;;;;;;;;;;;4957192;28;20389;-76
2023/06/02 16:54:37;;;;;;;;;;;;;;;;;;4969124;28;20441;-76
2023/06/02 16:57:24;;;;;;;;;;;;;;;;;;4956087;28;20374;-75
2023/06/02 17:00:10;;;;;;;;;;;;;;;;;;4965161;28;20393;-76
2023/06/02 17:02:57;;;;;;;;;;;;;;;;;;4963722;28;20002;-76
2023/06/02 17:05:46;;;;;;;;;;;;;;;;;;4968543;28;19956;-75
2023/06/02 17:08:32;;;;;;;;;;;;;;;;;;4960203;28;19930;-74
2023/06/02 17:11:19;;;;;;;;;;;;;;;;;;4966026;28;19918;-74
2023/06/02 17:14:06;;;;;;;;;;;;;;;;;;4955014;28;19925;-74
2023/06/02 17:16:52;;;;;;;;;;;;;;;;;;4954500;28;19925;-75
2023/06/02 17:19:39;;;;;;;;;;;;;;;;;;4955524;28;19919;-76
2023/06/02 17:22:26;;;;;;;;;;;;;;;;;;4960059;28;19949;-74
2023/06/02 17:25:13;;;;;;;;;;;;;;;;;;4958075;28;19929;-76
2023/06/02 17:27:59;;;;;;;;;;;;;;;;;;4930267;29;19935;-77
2023/06/02 17:30:46;;;;;;;;;;;;;;;;;;4939683;28;19937;-76
2023/06/02 17:33:32;;;;;;;;;;;;;;;;;;4937173;28;20402;-77
2023/06/02 17:36:19;;;;;;;;;;;;;;;;;;4950622;28;19922;-77
2023/06/02 17:39:06;;;;;;;;;;;;;;;;;;4935662;28;19923;-77
2023/06/02 17:41:52;;;;;;;;;;;;;;;;;;4943413;28;19919;-77
2023/06/02 17:44:42;;;;;;;;;;;;;;;;;;4939492;28;19922;-76
2023/06/02 17:47:28;;;;;;;;;;;;;;;;;;4944234;29;19930;-76
2023/06/02 17:50:16;;;;;;;;;;;;;;;;;;4937404;28;19998;-75
2023/06/02 17:53:03;;;;;;;;;;;;;;;;;;4942583;29;19923;-77
2023/06/02 17:55:49;;;;;;;;;;;;;;;;;;4934285;28;20316;-77
2023/06/02 17:58:36;;;;;;;;;;;;;;;;;;4944190;28;20367;-77
2023/06/02 18:01:22;;;;;;;;;;;;;;;;;;4941019;29;19921;-76
2023/06/02 18:04:09;;;;;;;;;;;;;;;;;;4938781;29;20137;-77
2023/06/02 18:06:55;;;;;;;;;;;;;;;;;;4938729;29;20405;-76
2023/06/02 18:09:42;;;;;;;;;;;;;;;;;;4942000;28;19938;-76
2023/06/02 18:12:29;;;;;;;;;;;;;;;;;;4946254;28;19918;-76
2023/06/02 18:15:17;;;;;;;;;;;;;;;;;;4924487;29;20701;-77
2023/06/02 18:18:03;;;;;;;;;;;;;;;;;;4944343;29;20290;-76
2023/06/02 18:20:50;;;;;;;;;;;;;;;;;;4941630;28;19927;-76
2023/06/02 18:23:36;;;;;;;;;;;;;;;;;;4930341;29;19926;-77
2023/06/02 18:26:23;;;;;;;;;;;;;;;;;;4937817;28;19938;-76
2023/06/02 18:29:09;;;;;;;;;;;;;;;;;;4938776;28;19930;-75
2023/06/02 18:31:56;;;;;;;;;;;;;;;;;;4939864;28;19944;-77
2023/06/02 18:34:42;;;;;;;;;;;;;;;;;;4942143;28;19922;-75
2023/06/02 18:37:29;;;;;;;;;;;;;;;;;;4941252;28;19946;-73
2023/06/02 18:40:15;;;;;;;;;;;;;;;;;;4935210;28;19919;-77
2023/06/02 18:43:02;;;;;;;;;;;;;;;;;;4939557;28;19941;-76
2023/06/02 18:45:48;;;;;;;;;;;;;;;;;;4940833;28;20279;-78
2023/06/02 18:48:35;;;;;;;;;;;;;;;;;;4945859;28;19930;-76
2023/06/02 18:51:21;;;;;;;;;;;;;;;;;;4950504;28;19941;-76
2023/06/02 18:54:08;;;;;;;;;;;;;;;;;;4935688;28;19923;-75
2023/06/02 18:56:56;;;;;;;;;;;;;;;;;;4937966;28;19926;-76
2023/06/02 18:59:42;;;;;;;;;;;;;;;;;;4939060;28;19930;-79